Terminal Aerodrome Forecast
Issued by NWS Quad Cities IA IL

Current Version | Previous Version | Text Only | Print | Product List | Glossary On
Versions: 1 2 3 4 5 6 7 8 9 10 11 12 13 14 15 16
000
FTUS43 KDVN 020520
TAFDBQ
TAF
KDBQ 020520Z 0206/0306 21007KT P6SM FEW130
     FM021100 22011KT P6SM SCT080
     FM021400 23016G22KT P6SM SCT080
     FM021700 24020G27KT P6SM SCT080
     FM030000 24011KT P6SM SKC=

USA.gov is the U.S. government's official web portal to all federal, state and local government web resources and services.